Murray, Utah
Current Conditions -  °F | °C
As of 2:53 AM on Monday 22 Dec 2014 (Local Time) from KSLC Reporting Station
Overcast Overcast  
Wind Chill: 41°   Ceiling: 5000
Heat Index: 41°   Visibility: 10mi
Dew Point: 35°   Wind: 0mph
Humidity: 79%   Direction: NA
Pressure: 30.03"   Gusts: NA
Location:  40.66°N, 111.88°W
Report Text: KSLC 220953Z 00000KT 10SM BKN050 OVC060 05/02 A3003 RMK AO2 SLP163 T00500017
Loading
Personal Weather Stations






























Interactive Weather Map New forecast layout! Learn more

10-Day Weather Forecast

Advertisements
Track Severe Weather on mobile